createdAt,value
2018-11-04T00:00:42.233Z,94.08
2018-11-04T00:01:42.276Z,94.23
2018-11-04T00:02:42.204Z,94.23
2018-11-04T00:03:42.201Z,93.60
2018-11-04T00:04:42.206Z,93.71
2018-11-04T00:05:42.172Z,93.40
2018-11-04T00:06:42.159Z,92.87
2018-11-04T00:07:42.149Z,92.56
2018-11-04T00:08:42.183Z,92.35
2018-11-04T00:09:42.136Z,92.66
2018-11-04T00:10:42.129Z,92.66
2018-11-04T00:11:42.117Z,92.56
2018-11-04T00:12:42.149Z,92.56
2018-11-04T00:13:42.091Z,92.66
2018-11-04T00:14:42.127Z,92.35
2018-11-04T00:15:42.135Z,92.46
2018-11-04T00:16:42.060Z,92.66
2018-11-04T00:17:42.074Z,92.77
2018-11-04T00:18:42.051Z,93.50
2018-11-04T00:19:42.034Z,93.60
2018-11-04T00:20:42.015Z,93.40
2018-11-04T00:21:42.028Z,93.60
2018-11-04T00:22:42.006Z,93.29
2018-11-04T00:23:41.996Z,93.08
2018-11-04T00:24:41.992Z,93.40
2018-11-04T00:25:41.963Z,92.77
2018-11-04T00:26:41.951Z,93.65
2018-11-04T00:27:41.943Z,93.85
2018-11-04T00:28:41.969Z,93.65
2018-11-04T00:29:41.955Z,93.54
2018-11-04T00:30:41.916Z,93.44
2018-11-04T00:31:41.908Z,93.85
2018-11-04T00:32:41.901Z,93.65
2018-11-04T00:33:41.959Z,93.54
2018-11-04T00:34:41.925Z,93.54
2018-11-04T00:35:41.878Z,93.85
2018-11-04T00:36:41.855Z,93.81
2018-11-04T00:37:41.837Z,93.96
2018-11-04T00:38:41.838Z,93.96
2018-11-04T00:39:41.822Z,93.54
2018-11-04T00:40:41.808Z,93.71
2018-11-04T00:41:41.802Z,93.40
2018-11-04T00:42:41.794Z,94.64
2018-11-04T00:43:41.844Z,94.54
2018-11-04T00:44:41.768Z,94.96
2018-11-04T00:45:41.758Z,95.43
2018-11-04T00:46:41.773Z,95.33
2018-11-04T00:47:41.729Z,95.12
2018-11-04T00:48:41.722Z,95.12
2018-11-04T00:49:41.742Z,95.23
2018-11-04T00:50:41.721Z,95.64
2018-11-04T00:51:41.735Z,95.85
2018-11-04T00:52:41.683Z,96.12
2018-11-04T00:53:41.677Z,96.12
2018-11-04T00:54:41.667Z,96.12
2018-11-04T00:55:41.655Z,96.53
2018-11-04T00:56:41.643Z,97.37
2018-11-04T00:57:41.653Z,97.01
2018-11-04T00:58:41.624Z,97.22
2018-11-04T00:59:41.605Z,97.43
2018-11-04T01:00:41.595Z,97.33
2018-11-04T01:01:43.131Z,97.33
2018-11-04T01:02:41.594Z,97.91
2018-11-04T01:03:41.603Z,98.01
2018-11-04T01:04:41.593Z,97.55
2018-11-04T01:05:41.546Z,97.75
2018-11-04T01:06:41.536Z,98.07
2018-11-04T01:07:41.531Z,98.38
2018-11-04T01:08:41.524Z,98.44
2018-11-04T01:09:41.503Z,98.33
2018-11-04T01:10:41.489Z,97.81
2018-11-04T01:11:41.492Z,97.50
2018-11-04T01:12:41.484Z,97.81
2018-11-04T01:13:41.492Z,97.71
2018-11-04T01:14:41.472Z,97.71
2018-11-04T01:15:41.450Z,97.67
2018-11-04T01:16:41.432Z,97.56
2018-11-04T01:17:41.421Z,97.77
2018-11-04T01:18:41.452Z,97.09
2018-11-04T01:19:41.396Z,96.98
2018-11-04T01:20:41.390Z,97.09
2018-11-04T01:21:41.383Z,96.98
2018-11-04T01:22:41.406Z,96.73
2018-11-04T01:23:41.361Z,96.78
2018-11-04T01:24:41.347Z,96.78
2018-11-04T01:25:41.358Z,96.78
2018-11-04T01:26:41.327Z,96.88
2018-11-04T01:27:41.358Z,96.88
2018-11-04T01:28:41.310Z,96.67
2018-11-04T01:29:41.315Z,96.25
2018-11-04T01:30:41.276Z,96.00
2018-11-04T01:31:41.273Z,96.00
2018-11-04T01:32:41.265Z,95.90
2018-11-04T01:33:41.273Z,96.21
2018-11-04T01:34:41.265Z,96.21
2018-11-04T01:35:41.247Z,96.57
2018-11-04T01:36:41.251Z,96.78
2018-11-04T01:37:41.221Z,96.94
2018-11-04T01:38:41.190Z,97.09
2018-11-04T01:39:41.199Z,96.94
2018-11-04T01:40:41.184Z,96.94
2018-11-04T01:41:41.172Z,96.94
2018-11-04T01:42:41.149Z,97.04
2018-11-04T01:43:41.139Z,97.35
2018-11-04T01:44:41.153Z,97.14
2018-11-04T01:45:41.122Z,96.94
2018-11-04T01:46:41.131Z,97.14
2018-11-04T01:47:41.102Z,96.83
2018-11-04T01:48:41.094Z,97.88
2018-11-04T01:49:41.075Z,97.31
2018-11-04T01:50:41.073Z,97.52
2018-11-04T01:51:41.054Z,97.62
2018-11-04T01:52:41.060Z,97.41
2018-11-04T01:53:41.036Z,97.78
2018-11-04T01:54:41.031Z,97.83
2018-11-04T01:55:41.012Z,97.78
2018-11-04T01:56:41.003Z,97.83
2018-11-04T01:57:41.005Z,96.95
2018-11-04T01:58:40.998Z,96.85
2018-11-04T01:59:40.974Z,97.16
2018-11-04T02:00:40.967Z,96.75
2018-11-04T02:01:40.955Z,97.06
2018-11-04T02:02:40.948Z,96.75
2018-11-04T02:03:40.921Z,97.47
2018-11-04T02:04:40.936Z,97.02
2018-11-04T02:05:40.908Z,97.06
2018-11-04T02:06:40.903Z,97.02
2018-11-04T02:07:40.894Z,97.27
2018-11-04T02:08:40.877Z,97.02
2018-11-04T02:09:40.863Z,97.02
2018-11-04T02:10:40.901Z,97.02
2018-11-04T02:11:40.862Z,96.81
2018-11-04T02:12:40.834Z,96.81
2018-11-04T02:13:40.847Z,97.02
2018-11-04T02:14:40.832Z,96.81
2018-11-04T02:15:40.802Z,96.70
2018-11-04T02:16:40.788Z,97.22
2018-11-04T02:17:40.787Z,96.91
2018-11-04T02:18:40.784Z,97.02
2018-11-04T02:19:40.775Z,97.02
2018-11-04T02:20:40.772Z,97.02
2018-11-04T02:21:40.767Z,96.86
2018-11-04T02:22:40.729Z,96.86
2018-11-04T02:23:40.738Z,96.97
2018-11-04T02:24:40.704Z,96.91
2018-11-04T02:25:40.728Z,97.28
2018-11-04T02:26:40.702Z,97.22
2018-11-04T02:27:40.678Z,97.07
2018-11-04T02:28:40.664Z,97.07
2018-11-04T02:29:40.670Z,97.02
2018-11-04T02:30:40.661Z,96.97
2018-11-04T02:31:40.658Z,97.22
2018-11-04T02:32:40.621Z,97.17
2018-11-04T02:33:40.627Z,96.76
2018-11-04T02:34:40.651Z,96.55
2018-11-04T02:35:40.637Z,96.14
2018-11-04T02:36:40.590Z,96.55
2018-11-04T02:37:40.594Z,95.72
2018-11-04T02:38:40.579Z,95.83
2018-11-04T02:39:40.552Z,95.72
2018-11-04T02:40:40.553Z,96.03
2018-11-04T02:41:40.534Z,95.41
2018-11-04T02:42:40.524Z,96.03
2018-11-04T02:43:40.516Z,95.10
2018-11-04T02:44:40.530Z,95.78
2018-11-04T02:45:40.488Z,96.61
2018-11-04T02:46:40.540Z,96.61
2018-11-04T02:47:40.465Z,96.51
2018-11-04T02:48:40.446Z,96.51
2018-11-04T02:49:40.505Z,96.88
2018-11-04T02:50:40.515Z,96.67
2018-11-04T02:51:40.508Z,97.29
2018-11-04T02:52:40.466Z,97.71
2018-11-04T02:53:40.398Z,97.09
2018-11-04T02:54:40.396Z,97.14
2018-11-04T02:55:40.377Z,97.45
2018-11-04T02:56:40.401Z,97.56
2018-11-04T02:57:40.356Z,97.25
2018-11-04T02:58:40.348Z,96.62
2018-11-04T02:59:40.341Z,96.83
2018-11-04T03:00:40.339Z,96.94
2018-11-04T03:01:40.772Z,97.14
2018-11-04T03:02:40.292Z,96.11
2018-11-04T03:03:40.292Z,96.42
2018-11-04T03:04:40.279Z,96.58
2018-11-04T03:05:40.294Z,96.42
2018-11-04T03:06:40.268Z,96.11
2018-11-04T03:07:40.280Z,96.17
2018-11-04T03:08:40.232Z,96.01
2018-11-04T03:09:40.256Z,96.62
2018-11-04T03:10:40.242Z,96.79
2018-11-04T03:11:40.195Z,97.10
2018-11-04T03:12:40.199Z,96.79
2018-11-04T03:13:40.205Z,97.00
2018-11-04T03:14:40.193Z,96.69
2018-11-04T03:15:40.159Z,95.96
2018-11-04T03:16:40.144Z,96.33
2018-11-04T03:17:40.168Z,96.17
2018-11-04T03:18:40.136Z,95.96
2018-11-04T03:19:40.149Z,95.81
2018-11-04T03:20:40.105Z,95.81
2018-11-04T03:21:40.093Z,95.50
2018-11-04T03:22:40.084Z,95.61
2018-11-04T03:23:40.094Z,95.50
2018-11-04T03:24:40.138Z,95.50
2018-11-04T03:25:40.107Z,95.67
2018-11-04T03:26:40.043Z,94.98
2018-11-04T03:27:40.043Z,95.29
2018-11-04T03:28:40.059Z,95.15
2018-11-04T03:29:40.093Z,95.29
2018-11-04T03:30:40.080Z,95.04
2018-11-04T03:31:39.999Z,94.98
2018-11-04T03:32:40.020Z,95.19
2018-11-04T03:33:39.982Z,95.29
2018-11-04T03:34:39.980Z,95.19
2018-11-04T03:35:39.947Z,95.25
2018-11-04T03:36:39.984Z,94.84
2018-11-04T03:37:39.924Z,95.04
2018-11-04T03:38:39.964Z,94.84
2018-11-04T03:39:39.905Z,94.43
2018-11-04T03:40:39.897Z,94.53
2018-11-04T03:41:39.883Z,94.94
2018-11-04T03:42:39.899Z,94.63
2018-11-04T03:43:39.858Z,94.79
2018-11-04T03:44:39.899Z,94.69
2018-11-04T03:45:39.847Z,94.90
2018-11-04T03:46:39.858Z,94.69
2018-11-04T03:47:39.826Z,94.69
2018-11-04T03:48:39.805Z,94.18
2018-11-04T03:49:39.856Z,94.38
2018-11-04T03:50:39.803Z,94.54
2018-11-04T03:51:39.792Z,93.62
2018-11-04T03:52:39.802Z,93.62
2018-11-04T03:53:39.763Z,93.51
2018-11-04T03:54:39.754Z,93.10
2018-11-04T03:55:39.734Z,93.51
2018-11-04T03:56:39.723Z,93.51
2018-11-04T03:57:39.723Z,93.51
2018-11-04T03:58:39.706Z,93.68
2018-11-04T03:59:39.700Z,91.92
2018-11-04T04:00:39.684Z,92.33
2018-11-04T04:01:39.669Z,92.44
2018-11-04T04:02:39.678Z,92.33
2018-11-04T04:03:39.677Z,92.54
2018-11-04T04:04:39.652Z,91.88
2018-11-04T04:05:39.641Z,91.67
2018-11-04T04:06:39.609Z,91.77
2018-11-04T04:07:39.613Z,90.95
2018-11-04T04:08:39.590Z,91.67
2018-11-04T04:09:39.625Z,91.46
2018-11-04T04:10:39.596Z,91.16
2018-11-04T04:11:39.568Z,90.64
2018-11-04T04:12:39.568Z,91.01
2018-11-04T04:13:39.539Z,90.39
2018-11-04T04:14:39.523Z,90.02
2018-11-04T04:15:39.531Z,90.59
2018-11-04T04:16:39.551Z,89.77
2018-11-04T04:17:39.508Z,90.08
2018-11-04T04:18:39.486Z,89.67
2018-11-04T04:19:39.491Z,89.83
2018-11-04T04:20:39.466Z,90.19
2018-11-04T04:21:39.454Z,89.98
2018-11-04T04:22:39.465Z,89.77
2018-11-04T04:23:39.434Z,88.59
2018-11-04T04:24:39.429Z,90.04
2018-11-04T04:25:39.414Z,89.98
2018-11-04T04:26:39.396Z,88.49
2018-11-04T04:27:39.393Z,89.36
2018-11-04T04:28:39.421Z,89.36
2018-11-04T04:29:39.379Z,89.46
2018-11-04T04:30:39.365Z,89.01
2018-11-04T04:31:39.364Z,89.77
2018-11-04T04:32:39.354Z,89.05
2018-11-04T04:33:39.326Z,88.90
2018-11-04T04:34:39.322Z,89.25
2018-11-04T04:35:39.336Z,89.25
2018-11-04T04:36:39.302Z,89.22
2018-11-04T04:37:39.303Z,89.46
2018-11-04T04:38:39.281Z,90.14
2018-11-04T04:39:39.259Z,89.22
2018-11-04T04:40:39.252Z,89.32
2018-11-04T04:41:39.239Z,90.04
2018-11-04T04:42:39.243Z,89.32
2018-11-04T04:43:39.226Z,88.80
2018-11-04T04:44:39.207Z,88.90
2018-11-04T04:45:39.227Z,88.90
2018-11-04T04:46:39.218Z,89.42
2018-11-04T04:47:39.181Z,88.80
2018-11-04T04:48:39.161Z,89.32
2018-11-04T04:49:39.153Z,88.59
2018-11-04T04:50:39.170Z,88.59
2018-11-04T04:51:39.179Z,88.90
2018-11-04T04:52:39.233Z,88.90
2018-11-04T04:53:39.754Z,88.39
2018-11-04T04:54:39.111Z,89.22
2018-11-04T04:55:39.161Z,88.39
2018-11-04T04:56:39.188Z,88.70
2018-11-04T04:57:39.127Z,88.39
2018-11-04T04:58:39.067Z,88.80
2018-11-04T04:59:39.041Z,89.22
2018-11-04T05:00:39.037Z,88.29
2018-11-04T05:01:39.071Z,88.80
2018-11-04T05:02:39.038Z,88.80
2018-11-04T05:03:39.030Z,89.42
2018-11-04T05:04:38.999Z,88.96
2018-11-04T05:05:38.981Z,88.80
2018-11-04T05:06:38.973Z,89.17
2018-11-04T05:07:38.973Z,88.96
2018-11-04T05:08:38.954Z,89.22
2018-11-04T05:09:38.954Z,88.86
2018-11-04T05:10:38.931Z,88.76
2018-11-04T05:11:38.933Z,88.45
2018-11-04T05:12:38.918Z,88.65
2018-11-04T05:13:38.897Z,88.96
2018-11-04T05:14:38.905Z,88.45
2018-11-04T05:15:38.922Z,88.65
2018-11-04T05:16:38.872Z,88.45
2018-11-04T05:17:38.874Z,88.76
2018-11-04T05:18:38.861Z,88.24
2018-11-04T05:19:38.844Z,88.65
2018-11-04T05:20:38.831Z,88.24
2018-11-04T05:21:38.811Z,88.45
2018-11-04T05:22:38.850Z,88.45
2018-11-04T05:23:38.800Z,88.45
2018-11-04T05:24:38.811Z,88.24
2018-11-04T05:25:38.791Z,88.45
2018-11-04T05:26:38.759Z,88.76
2018-11-04T05:27:38.750Z,88.56
2018-11-04T05:28:38.735Z,88.45
2018-11-04T05:29:38.729Z,88.86
2018-11-04T05:30:38.712Z,88.20
2018-11-04T05:31:38.702Z,88.41
2018-11-04T05:32:38.730Z,88.41
2018-11-04T05:33:38.681Z,88.35
2018-11-04T05:34:38.711Z,88.45
2018-11-04T05:35:38.672Z,88.35
2018-11-04T05:36:38.667Z,88.04
2018-11-04T05:37:38.662Z,88.35
2018-11-04T05:38:38.646Z,87.90
2018-11-04T05:39:38.625Z,87.69
2018-11-04T05:40:38.615Z,87.90
2018-11-04T05:41:38.597Z,87.99
2018-11-04T05:42:38.605Z,87.99
2018-11-04T05:43:38.589Z,87.79
2018-11-04T05:44:38.593Z,88.10
2018-11-04T05:45:38.556Z,87.99
2018-11-04T05:46:38.547Z,88.20
2018-11-04T05:47:38.553Z,87.69
2018-11-04T05:48:38.540Z,87.99
2018-11-04T05:49:38.553Z,87.99
2018-11-04T05:50:38.528Z,87.90
2018-11-04T05:51:38.485Z,87.99
2018-11-04T05:52:38.476Z,88.20
2018-11-04T05:53:38.498Z,87.90
2018-11-04T05:54:38.460Z,87.48
2018-11-04T05:55:38.453Z,87.90
2018-11-04T05:56:38.433Z,87.48
2018-11-04T05:57:38.429Z,88.10
2018-11-04T05:58:38.418Z,87.79
2018-11-04T05:59:38.408Z,87.99
2018-11-04T06:00:38.436Z,87.90
2018-11-04T06:01:38.381Z,87.69
2018-11-04T06:02:38.370Z,88.20
2018-11-04T06:03:38.362Z,88.20
2018-11-04T06:04:38.356Z,88.10
2018-11-04T06:05:38.346Z,87.59
2018-11-04T06:06:38.354Z,87.99
2018-11-04T06:07:38.328Z,87.69
2018-11-04T06:08:38.310Z,87.65
2018-11-04T06:09:38.297Z,87.90
2018-11-04T06:10:38.295Z,88.06
2018-11-04T06:11:38.297Z,87.75
2018-11-04T06:12:38.279Z,87.54
2018-11-04T06:13:38.253Z,87.79
2018-11-04T06:14:38.259Z,87.79
2018-11-04T06:15:38.233Z,88.20
2018-11-04T06:16:38.239Z,87.59
2018-11-04T06:17:38.211Z,87.99
2018-11-04T06:18:38.208Z,87.90
2018-11-04T06:19:38.197Z,87.99
2018-11-04T06:20:38.183Z,87.90
2018-11-04T06:21:38.176Z,87.99
2018-11-04T06:22:38.168Z,88.10
2018-11-04T06:23:38.148Z,88.10
2018-11-04T06:24:38.133Z,88.10
2018-11-04T06:25:38.125Z,88.20
2018-11-04T06:26:38.135Z,88.35
2018-11-04T06:27:38.101Z,88.20
2018-11-04T06:28:38.126Z,88.72
2018-11-04T06:29:38.087Z,88.10
2018-11-04T06:30:38.082Z,88.72
2018-11-04T06:31:38.073Z,88.41
2018-11-04T06:32:38.062Z,88.20
2018-11-04T06:33:38.040Z,88.41
2018-11-04T06:34:38.117Z,88.10
2018-11-04T06:35:38.031Z,88.20
2018-11-04T06:36:38.029Z,87.90
2018-11-04T06:37:37.998Z,87.99
2018-11-04T06:38:38.040Z,88.41
2018-11-04T06:39:37.978Z,88.51
2018-11-04T06:40:37.977Z,88.20
2018-11-04T06:41:37.951Z,88.51
2018-11-04T06:42:37.938Z,87.69
2018-11-04T06:43:37.939Z,87.99
2018-11-04T06:44:37.935Z,88.20
2018-11-04T06:45:37.919Z,87.99
2018-11-04T06:46:37.906Z,88.20
2018-11-04T06:47:37.988Z,88.31
2018-11-04T06:48:37.904Z,87.69
2018-11-04T06:49:37.868Z,87.85
2018-11-04T06:50:37.890Z,87.69
2018-11-04T06:51:37.860Z,88.06
2018-11-04T06:52:37.841Z,87.48
2018-11-04T06:53:37.841Z,87.59
2018-11-04T06:54:37.822Z,87.44
2018-11-04T06:55:37.821Z,87.44
2018-11-04T06:56:37.807Z,87.85
2018-11-04T06:57:37.788Z,88.06
2018-11-04T06:58:37.782Z,87.34
2018-11-04T06:59:37.762Z,87.24
2018-11-04T07:00:37.771Z,87.44
2018-11-04T07:01:37.749Z,87.54
2018-11-04T07:02:37.737Z,87.59
2018-11-04T07:03:37.734Z,87.85
2018-11-04T07:04:37.719Z,87.75
2018-11-04T07:05:37.704Z,86.93
2018-11-04T07:06:37.736Z,87.44
2018-11-04T07:07:37.676Z,87.03
2018-11-04T07:08:37.680Z,87.96
2018-11-04T07:09:37.713Z,87.65
2018-11-04T07:10:37.651Z,87.96
2018-11-04T07:11:37.648Z,87.96
2018-11-04T07:12:37.626Z,86.82
2018-11-04T07:13:37.618Z,87.24
2018-11-04T07:14:37.611Z,86.93
2018-11-04T07:15:37.596Z,87.13
2018-11-04T07:16:37.651Z,86.93
2018-11-04T07:17:37.571Z,87.03
2018-11-04T07:18:37.556Z,86.93
2018-11-04T07:19:37.559Z,87.24
2018-11-04T07:20:37.577Z,87.54
2018-11-04T07:21:37.537Z,86.99
2018-11-04T07:22:37.529Z,87.13
2018-11-04T07:23:37.509Z,87.75
2018-11-04T07:24:37.519Z,87.44
2018-11-04T07:25:37.527Z,87.03
2018-11-04T07:26:37.471Z,87.03
2018-11-04T07:27:37.464Z,87.34
2018-11-04T07:28:37.449Z,87.65
2018-11-04T07:29:37.486Z,87.24
2018-11-04T07:30:37.463Z,87.40
2018-11-04T07:31:37.418Z,86.79
2018-11-04T07:32:37.415Z,86.99
2018-11-04T07:33:37.426Z,87.92
2018-11-04T07:34:37.403Z,86.99
2018-11-04T07:35:37.393Z,86.99
2018-11-04T07:36:37.375Z,87.51
2018-11-04T07:37:37.352Z,86.99
2018-11-04T07:38:37.367Z,87.71
2018-11-04T07:39:37.351Z,87.30
2018-11-04T07:40:37.321Z,87.09
2018-11-04T07:41:37.319Z,87.09
2018-11-04T07:42:37.318Z,86.99
2018-11-04T07:43:37.306Z,86.79
2018-11-04T07:44:37.327Z,86.95
2018-11-04T07:45:37.276Z,87.09
2018-11-04T07:46:37.288Z,87.05
2018-11-04T07:47:37.254Z,87.15
2018-11-04T07:48:37.245Z,87.57
2018-11-04T07:49:37.232Z,87.05
2018-11-04T07:50:37.243Z,86.85
2018-11-04T07:51:37.328Z,86.85
2018-11-04T07:52:37.189Z,86.74
2018-11-04T07:53:37.190Z,87.05
2018-11-04T07:54:37.195Z,86.64
2018-11-04T07:55:37.171Z,86.54
2018-11-04T07:56:37.167Z,86.74
2018-11-04T07:57:37.138Z,86.33
2018-11-04T07:58:37.127Z,86.74
2018-11-04T07:59:37.145Z,85.82
2018-11-04T08:00:37.102Z,86.43
2018-11-04T08:01:37.102Z,86.43
2018-11-04T08:02:37.102Z,85.82
2018-11-04T08:03:37.075Z,86.08
2018-11-04T08:04:37.082Z,86.19
2018-11-04T08:05:37.087Z,86.08
2018-11-04T08:06:37.056Z,86.40
2018-11-04T08:07:37.057Z,86.19
2018-11-04T08:08:37.026Z,85.98
2018-11-04T08:09:37.022Z,86.19
2018-11-04T08:10:37.003Z,85.88
2018-11-04T08:11:36.998Z,86.08
2018-11-04T08:12:36.973Z,86.19
2018-11-04T08:13:37.056Z,85.78
2018-11-04T08:14:36.969Z,86.19
2018-11-04T08:15:36.998Z,85.98
2018-11-04T08:16:36.940Z,86.08
2018-11-04T08:17:36.931Z,85.43
2018-11-04T08:18:36.911Z,85.74
2018-11-04T08:19:36.905Z,86.15
2018-11-04T08:20:36.892Z,86.08
2018-11-04T08:21:36.884Z,85.43
2018-11-04T08:22:36.891Z,85.63
2018-11-04T08:23:36.857Z,85.22
2018-11-04T08:24:36.843Z,85.63
2018-11-04T08:25:36.841Z,85.53
2018-11-04T08:26:36.834Z,85.53
2018-11-04T08:27:36.921Z,85.43
2018-11-04T08:28:36.811Z,85.53
2018-11-04T08:29:36.801Z,85.28
2018-11-04T08:30:36.783Z,85.28
2018-11-04T08:31:36.773Z,85.39
2018-11-04T08:32:36.756Z,85.28
2018-11-04T08:33:36.754Z,85.49
2018-11-04T08:34:36.770Z,85.39
2018-11-04T08:35:36.726Z,84.53
2018-11-04T08:36:36.716Z,85.18
2018-11-04T08:37:36.723Z,84.67
2018-11-04T08:38:36.701Z,84.01
2018-11-04T08:39:36.746Z,84.56
2018-11-04T08:40:36.688Z,84.42
2018-11-04T08:41:36.698Z,84.22
2018-11-04T08:42:36.653Z,84.74
2018-11-04T08:43:36.649Z,84.84
2018-11-04T08:44:36.636Z,85.04
2018-11-04T08:45:36.634Z,84.32
2018-11-04T08:46:36.611Z,84.42
2018-11-04T08:47:36.680Z,84.12
2018-11-04T08:48:36.603Z,84.42
2018-11-04T08:49:36.589Z,84.12
2018-11-04T08:50:36.604Z,84.53
2018-11-04T08:51:36.573Z,84.53
2018-11-04T08:52:36.666Z,84.32
2018-11-04T08:53:36.534Z,84.42
2018-11-04T08:54:36.521Z,84.53
2018-11-04T08:55:36.525Z,84.49
2018-11-04T08:56:36.502Z,84.49
2018-11-04T08:57:36.520Z,84.12
2018-11-04T08:58:36.483Z,84.08
2018-11-04T08:59:36.475Z,84.59
2018-11-04T09:00:36.504Z,84.69
2018-11-04T09:01:36.443Z,84.39
2018-11-04T09:02:36.435Z,83.98
2018-11-04T09:03:36.437Z,83.50
2018-11-04T09:04:36.411Z,83.98
2018-11-04T09:05:36.416Z,83.77
2018-11-04T09:06:36.423Z,84.53
2018-11-04T09:07:36.433Z,84.59
2018-11-04T09:08:36.373Z,84.49
2018-11-04T09:09:36.386Z,84.39
2018-11-04T09:10:36.382Z,84.69
2018-11-04T09:11:36.376Z,83.77
2018-11-04T09:12:36.380Z,83.46
2018-11-04T09:13:36.336Z,84.69
2018-11-04T09:14:36.306Z,83.67
2018-11-04T09:15:36.293Z,84.39
2018-11-04T09:16:36.285Z,83.98
2018-11-04T09:17:36.297Z,83.77
2018-11-04T09:18:36.282Z,84.28
2018-11-04T09:19:36.257Z,84.59
2018-11-04T09:20:36.245Z,83.87
2018-11-04T09:21:36.254Z,83.56
2018-11-04T09:22:36.290Z,84.80
2018-11-04T09:23:36.294Z,84.28
2018-11-04T09:24:36.223Z,83.87
2018-11-04T09:25:36.186Z,84.18
2018-11-04T09:26:36.177Z,83.77
2018-11-04T09:27:36.185Z,84.66
2018-11-04T09:28:36.153Z,83.46
2018-11-04T09:29:36.149Z,84.39
2018-11-04T09:30:36.143Z,84.55
2018-11-04T09:31:36.125Z,83.77
2018-11-04T09:32:36.131Z,83.67
2018-11-04T09:33:36.127Z,83.73
2018-11-04T09:34:36.108Z,83.77
2018-11-04T09:35:36.276Z,83.42
2018-11-04T09:36:36.159Z,84.14
2018-11-04T09:37:36.077Z,83.42
2018-11-04T09:38:36.059Z,83.77
2018-11-04T09:39:36.046Z,84.45
2018-11-04T09:40:36.039Z,83.73
2018-11-04T09:41:36.021Z,84.55
2018-11-04T09:42:36.019Z,84.45
2018-11-04T09:43:35.999Z,83.73
2018-11-04T09:44:35.992Z,83.53
2018-11-04T09:45:35.981Z,83.63
2018-11-04T09:46:36.051Z,83.53
2018-11-04T09:47:35.972Z,83.22
2018-11-04T09:48:35.963Z,83.83
2018-11-04T09:49:35.937Z,83.53
2018-11-04T09:50:35.924Z,83.73
2018-11-04T09:51:35.914Z,83.42
2018-11-04T09:52:35.915Z,83.32
2018-11-04T09:53:35.917Z,83.73
2018-11-04T09:54:35.890Z,83.42
2018-11-04T09:55:35.898Z,83.83
2018-11-04T09:56:36.035Z,83.94
2018-11-04T09:57:35.880Z,83.83
2018-11-04T09:58:35.835Z,83.77
2018-11-04T09:59:35.841Z,84.55
2018-11-04T10:00:35.812Z,83.46
2018-11-04T10:01:35.906Z,84.55
2018-11-04T10:02:35.818Z,84.76
2018-11-04T10:03:35.786Z,84.66
2018-11-04T10:04:35.812Z,83.73
2018-11-04T10:05:35.764Z,83.42
2018-11-04T10:06:35.772Z,83.73
2018-11-04T10:07:35.740Z,83.42
2018-11-04T10:08:35.727Z,83.12
2018-11-04T10:09:35.749Z,83.69
2018-11-04T10:10:35.716Z,83.90
2018-11-04T10:11:35.705Z,84.41
2018-11-04T10:12:35.694Z,83.69
2018-11-04T10:13:35.678Z,83.59
2018-11-04T10:14:35.671Z,82.67
2018-11-04T10:15:35.655Z,83.90
2018-11-04T10:16:35.738Z,83.39
2018-11-04T10:17:35.664Z,83.80
2018-11-04T10:18:35.669Z,83.39
2018-11-04T10:19:35.829Z,83.59
2018-11-04T10:20:35.902Z,82.97
2018-11-04T10:21:35.644Z,82.97
2018-11-04T10:22:35.645Z,83.18
2018-11-04T10:23:35.575Z,83.39
2018-11-04T10:24:35.598Z,82.32
2018-11-04T10:25:35.563Z,82.87
2018-11-04T10:26:35.575Z,83.34
2018-11-04T10:27:35.607Z,82.73
2018-11-04T10:28:35.558Z,83.14
2018-11-04T10:29:35.572Z,84.17
2018-11-04T10:30:35.505Z,83.86
2018-11-04T10:31:35.478Z,83.31
2018-11-04T10:32:35.561Z,82.93
2018-11-04T10:33:35.468Z,82.83
2018-11-04T10:34:35.455Z,82.22
2018-11-04T10:35:35.480Z,82.73
2018-11-04T10:36:35.437Z,82.53
2018-11-04T10:37:35.433Z,82.59
2018-11-04T10:38:35.423Z,82.59
2018-11-04T10:39:35.394Z,82.18
2018-11-04T10:40:35.380Z,82.79
2018-11-04T10:41:35.388Z,82.79
2018-11-04T10:42:35.378Z,82.39
2018-11-04T10:43:35.348Z,82.39
2018-11-04T10:44:35.339Z,81.57
2018-11-04T10:45:35.343Z,81.67
2018-11-04T10:46:35.318Z,81.46
2018-11-04T10:47:35.309Z,82.08
2018-11-04T10:48:35.334Z,82.49
2018-11-04T10:49:35.443Z,82.79
2018-11-04T10:50:35.286Z,83.51
2018-11-04T10:51:35.293Z,82.96
2018-11-04T10:52:35.247Z,83.27
2018-11-04T10:53:35.246Z,82.24
2018-11-04T10:54:35.234Z,81.94
2018-11-04T10:55:35.261Z,82.45
2018-11-04T10:56:35.211Z,82.14
2018-11-04T10:57:35.201Z,81.43
2018-11-04T10:58:35.216Z,81.63
2018-11-04T10:59:35.185Z,81.52
2018-11-04T11:00:35.189Z,81.52
2018-11-04T11:01:35.147Z,81.52
2018-11-04T11:02:35.146Z,82.24
2018-11-04T11:03:35.155Z,82.86
2018-11-04T11:04:35.150Z,82.14
2018-11-04T11:05:35.147Z,81.94
2018-11-04T11:06:35.100Z,81.08
2018-11-04T11:07:35.091Z,81.08
2018-11-04T11:08:35.081Z,80.91
2018-11-04T11:09:35.067Z,81.29
2018-11-04T11:10:35.090Z,80.26
2018-11-04T11:11:35.150Z,80.30
2018-11-04T11:12:35.035Z,81.08
2018-11-04T11:13:35.034Z,81.08
2018-11-04T11:14:35.077Z,81.29
2018-11-04T11:15:35.035Z,80.77
2018-11-04T11:16:34.991Z,80.88
2018-11-04T11:17:34.985Z,81.18
2018-11-04T11:18:35.016Z,81.18
2018-11-04T11:19:34.975Z,81.01
2018-11-04T11:20:34.957Z,80.91
2018-11-04T11:21:34.936Z,81.52
2018-11-04T11:22:35.003Z,81.52
2018-11-04T11:23:34.911Z,81.63
2018-11-04T11:24:34.915Z,81.22
2018-11-04T11:25:34.901Z,81.32
2018-11-04T11:26:34.920Z,81.43
2018-11-04T11:27:34.887Z,81.22
2018-11-04T11:28:34.884Z,81.84
2018-11-04T11:29:34.863Z,82.21
2018-11-04T11:30:34.843Z,81.94
2018-11-04T11:31:34.836Z,81.43
2018-11-04T11:32:34.843Z,81.63
2018-11-04T11:33:34.818Z,81.79
2018-11-04T11:34:34.804Z,81.70
2018-11-04T11:35:34.801Z,81.70
2018-11-04T11:36:34.775Z,81.49
2018-11-04T11:37:34.870Z,82.00
2018-11-04T11:38:34.767Z,81.76
2018-11-04T11:39:34.751Z,81.76
2018-11-04T11:40:34.747Z,81.04
2018-11-04T11:41:34.732Z,81.04
2018-11-04T11:42:34.709Z,80.83
2018-11-04T11:43:34.702Z,80.94
2018-11-04T11:44:34.716Z,80.90
2018-11-04T11:45:34.737Z,80.39
2018-11-04T11:46:34.675Z,80.19
2018-11-04T11:47:34.663Z,80.60
2018-11-04T11:48:34.660Z,80.39
2018-11-04T11:49:34.646Z,80.49
2018-11-04T11:50:34.644Z,81.07
2018-11-04T11:51:34.644Z,79.84
2018-11-04T11:52:34.742Z,79.84
2018-11-04T11:53:35.022Z,79.64
2018-11-04T11:54:34.765Z,80.49
2018-11-04T11:55:34.616Z,80.56
2018-11-04T11:56:34.613Z,80.87
2018-11-04T11:57:34.605Z,80.25
2018-11-04T11:58:34.560Z,79.64
2018-11-04T11:59:34.533Z,79.80
2018-11-04T12:00:34.528Z,79.94
2018-11-04T12:01:34.505Z,79.64
2018-11-04T12:02:34.501Z,79.74
2018-11-04T12:03:34.490Z,79.74
2018-11-04T12:04:34.514Z,79.94
2018-11-04T12:05:34.464Z,80.05
2018-11-04T12:06:34.450Z,79.94
2018-11-04T12:07:34.439Z,79.91
2018-11-04T12:08:34.448Z,79.94
2018-11-04T12:09:34.432Z,79.94
2018-11-04T12:10:34.414Z,79.94
2018-11-04T12:11:34.403Z,80.62
2018-11-04T12:12:34.400Z,80.25
2018-11-04T12:13:34.380Z,80.01
2018-11-04T12:14:34.381Z,80.01
2018-11-04T12:15:34.362Z,80.52
2018-11-04T12:16:34.344Z,79.39
2018-11-04T12:17:34.413Z,80.11
2018-11-04T12:18:34.327Z,79.43
2018-11-04T12:19:34.327Z,79.60
2018-11-04T12:20:34.302Z,79.80
2018-11-04T12:21:34.296Z,80.21
2018-11-04T12:22:34.306Z,79.74
2018-11-04T12:23:34.280Z,80.11
2018-11-04T12:24:34.266Z,80.11
2018-11-04T12:25:34.272Z,79.91
2018-11-04T12:26:34.232Z,80.15
2018-11-04T12:27:34.277Z,79.64
2018-11-04T12:28:34.213Z,80.15
2018-11-04T12:29:34.205Z,80.32
2018-11-04T12:30:34.201Z,80.42
2018-11-04T12:31:34.198Z,80.32
2018-11-04T12:32:34.172Z,79.80
2018-11-04T12:33:34.159Z,80.32
2018-11-04T12:34:34.148Z,80.52
2018-11-04T12:35:34.157Z,80.52
2018-11-04T12:36:34.174Z,79.60
2018-11-04T12:37:34.139Z,80.42
2018-11-04T12:38:34.112Z,79.60
2018-11-04T12:39:34.115Z,79.91
2018-11-04T12:40:34.083Z,80.62
2018-11-04T12:41:34.095Z,79.39
2018-11-04T12:42:34.078Z,79.70
2018-11-04T12:43:34.075Z,80.11
2018-11-04T12:44:34.048Z,80.11
2018-11-04T12:45:34.044Z,79.80
2018-11-04T12:46:34.021Z,80.01
2018-11-04T12:47:34.012Z,80.01
2018-11-04T12:48:34.002Z,80.01
2018-11-04T12:49:34.004Z,80.07
2018-11-04T12:50:33.993Z,80.01
2018-11-04T12:51:33.961Z,80.07
2018-11-04T12:52:33.971Z,79.77